Time;durP1;ratioP1;P1;durP2;ratioP2;P2;SDS_P1;SDS_P2;PMS_P1;PMS_P2;Temp;Humidity;BMP_temperature;BMP_pressure;BME280_temperature;BME280_humidity;BME280_pressure;Samples;Min_cycle;Max_cycle;Signal;HPM_P1;HPM_P2
2022/08/03 00:00:32;;;;;;;;;;;;;;;;;;5052913;28;19927;-79
2022/08/03 00:02:57;;;;;;;;;;;;;;;;;;5052848;28;19917;-79
2022/08/03 00:05:23;;;;;;;;;;;;;;;;;;5054081;28;20015;-79
2022/08/03 00:07:48;;;;;;;;;;;;;;;;;;5054220;28;20257;-80
2022/08/03 00:10:13;;;;;;;;;;;;;;;;;;5052822;28;19924;-80
2022/08/03 00:12:38;;;;;;;;;;;;;;;;;;5053360;28;20004;-79
2022/08/03 00:15:04;;;;;;;;;;;;;;;;;;5054436;28;19970;-79
2022/08/03 00:17:29;;;;;;;;;;;;;;;;;;5054299;28;20008;-79
2022/08/03 00:19:54;;;;;;;;;;;;;;;;;;5054159;28;19917;-79
2022/08/03 00:22:20;;;;;;;;;;;;;;;;;;5054328;28;20066;-80
2022/08/03 00:24:45;;;;;;;;;;;;;;;;;;5052507;28;19925;-80
2022/08/03 00:27:10;;;;;;;;;;;;;;;;;;5053821;28;19983;-79
2022/08/03 00:29:35;;;;;;;;;;;;;;;;;;5053798;28;20291;-79
2022/08/03 00:32:01;;;;;;;;;;;;;;;;;;5053969;28;19920;-79
2022/08/03 00:34:26;;;;;;;;;;;;;;;;;;5052450;28;20273;-79
2022/08/03 00:36:51;;;;;;;;;;;;;;;;;;5052423;28;19994;-79
2022/08/03 00:39:17;;;;;;;;;;;;;;;;;;5052756;28;19923;-79
2022/08/03 00:41:42;;;;;;;;;;;;;;;;;;5054174;28;19991;-79
2022/08/03 00:44:07;;;;;;;;;;;;;;;;;;5052370;28;19916;-79
2022/08/03 00:46:33;;;;;;;;;;;;;;;;;;5053766;28;19924;-79
2022/08/03 00:48:58;;;;;;;;;;;;;;;;;;5054145;28;20011;-79
2022/08/03 00:51:23;;;;;;;;;;;;;;;;;;5035939;28;19952;-79
2022/08/03 00:53:48;;;;;;;;;;;;;;;;;;5052244;28;19925;-79
2022/08/03 00:56:14;;;;;;;;;;;;;;;;;;5035671;28;19913;-79
2022/08/03 00:58:39;;;;;;;;;;;;;;;;;;5052289;28;20299;-79
2022/08/03 01:01:05;;;;;;;;;;;;;;;;;;5053726;28;19946;-79
2022/08/03 01:03:31;;;;;;;;;;;;;;;;;;5053466;28;19917;-79
2022/08/03 01:06:03;;;;;;;;;;;;;;;;;;5053397;28;19924;-79
2022/08/03 01:08:32;;;;;;;;;;;;;;;;;;5052287;28;19919;-79
2022/08/03 01:11:32;;;;;;;;;;;;;;;;;;5052414;28;20362;-79
2022/08/03 01:14:15;;;;;;;;;;;;;;;;;;5031563;28;20407;-79
2022/08/03 01:16:43;;;;;;;;;;;;;;;;;;5015061;28;19962;-79
2022/08/03 01:19:12;;;;;;;;;;;;;;;;;;5014799;28;19913;-79
2022/08/03 01:21:46;;;;;;;;;;;;;;;;;;5018720;28;19913;-79
2022/08/03 01:24:34;;;;;;;;;;;;;;;;;;5035040;28;19956;-79
2022/08/03 01:27:04;;;;;;;;;;;;;;;;;;5018569;28;19920;-79
2022/08/03 01:29:32;;;;;;;;;;;;;;;;;;5035390;28;20487;-79
2022/08/03 01:32:01;;;;;;;;;;;;;;;;;;5034860;28;19922;-79
2022/08/03 01:34:27;;;;;;;;;;;;;;;;;;5018217;28;20360;-79
2022/08/03 01:36:52;;;;;;;;;;;;;;;;;;5018245;28;19917;-79
2022/08/03 01:39:18;;;;;;;;;;;;;;;;;;5034882;28;19940;-79
2022/08/03 01:41:45;;;;;;;;;;;;;;;;;;5034932;28;20051;-79
2022/08/03 01:44:10;;;;;;;;;;;;;;;;;;5035555;28;19913;-79
2022/08/03 01:46:36;;;;;;;;;;;;;;;;;;5034629;28;19959;-79
2022/08/03 01:49:01;;;;;;;;;;;;;;;;;;5054720;28;19913;-79
2022/08/03 01:51:26;;;;;;;;;;;;;;;;;;5055402;28;20379;-79
2022/08/03 01:53:53;;;;;;;;;;;;;;;;;;5055394;28;20322;-79
2022/08/03 01:56:19;;;;;;;;;;;;;;;;;;5056477;28;19920;-79
2022/08/03 01:58:44;;;;;;;;;;;;;;;;;;5055506;28;20394;-79
2022/08/03 02:01:09;;;;;;;;;;;;;;;;;;5056982;28;19921;-79
2022/08/03 02:03:38;;;;;;;;;;;;;;;;;;5055131;28;19924;-79
2022/08/03 02:06:04;;;;;;;;;;;;;;;;;;5055469;28;19913;-79
2022/08/03 02:08:29;;;;;;;;;;;;;;;;;;5055706;28;19912;-79
2022/08/03 02:10:54;;;;;;;;;;;;;;;;;;5038267;28;19918;-79
2022/08/03 02:13:20;;;;;;;;;;;;;;;;;;5055192;28;19927;-79
2022/08/03 02:15:45;;;;;;;;;;;;;;;;;;5038253;28;20009;-79
2022/08/03 02:18:10;;;;;;;;;;;;;;;;;;5038161;28;19919;-79
2022/08/03 02:20:37;;;;;;;;;;;;;;;;;;5054865;28;19999;-79
2022/08/03 02:23:03;;;;;;;;;;;;;;;;;;5055995;28;19928;-79
2022/08/03 02:25:28;;;;;;;;;;;;;;;;;;5054926;28;19916;-79
2022/08/03 02:27:57;;;;;;;;;;;;;;;;;;5054972;28;20360;-79
2022/08/03 02:30:24;;;;;;;;;;;;;;;;;;5037802;28;19932;-79
2022/08/03 02:32:50;;;;;;;;;;;;;;;;;;5053380;28;19920;-79
2022/08/03 02:35:16;;;;;;;;;;;;;;;;;;5054617;28;19923;-79
2022/08/03 02:37:42;;;;;;;;;;;;;;;;;;5054576;28;20279;-79
2022/08/03 02:40:08;;;;;;;;;;;;;;;;;;5037807;28;20261;-79
2022/08/03 02:42:34;;;;;;;;;;;;;;;;;;5055574;28;19978;-79
2022/08/03 02:45:01;;;;;;;;;;;;;;;;;;5038046;28;19917;-79
2022/08/03 02:47:27;;;;;;;;;;;;;;;;;;5037697;28;19955;-79
2022/08/03 02:49:52;;;;;;;;;;;;;;;;;;5054601;28;19923;-79
2022/08/03 02:52:19;;;;;;;;;;;;;;;;;;5054266;28;19913;-79
2022/08/03 02:54:44;;;;;;;;;;;;;;;;;;5054453;28;20017;-79
2022/08/03 02:57:09;;;;;;;;;;;;;;;;;;5055872;28;19925;-79
2022/08/03 02:59:34;;;;;;;;;;;;;;;;;;5037311;28;19920;-79
2022/08/03 03:02:00;;;;;;;;;;;;;;;;;;5037533;28;19916;-79
2022/08/03 03:04:26;;;;;;;;;;;;;;;;;;5054066;28;19917;-79
2022/08/03 03:06:51;;;;;;;;;;;;;;;;;;5054300;28;20008;-79
2022/08/03 03:09:17;;;;;;;;;;;;;;;;;;5055442;28;19963;-79
2022/08/03 03:11:42;;;;;;;;;;;;;;;;;;5054987;28;19956;-79
2022/08/03 03:14:08;;;;;;;;;;;;;;;;;;5037089;28;19978;-79
2022/08/03 03:16:33;;;;;;;;;;;;;;;;;;5037208;28;19962;-79
2022/08/03 03:18:58;;;;;;;;;;;;;;;;;;5054043;28;20326;-79
2022/08/03 03:21:24;;;;;;;;;;;;;;;;;;5054926;28;19917;-79
2022/08/03 03:23:49;;;;;;;;;;;;;;;;;;5053572;28;19952;-79
2022/08/03 03:26:14;;;;;;;;;;;;;;;;;;5054755;28;19916;-79
2022/08/03 03:28:40;;;;;;;;;;;;;;;;;;5036982;28;20371;-79
2022/08/03 03:31:05;;;;;;;;;;;;;;;;;;5053557;28;20367;-79
2022/08/03 03:33:32;;;;;;;;;;;;;;;;;;5054663;28;19921;-78
2022/08/03 03:35:57;;;;;;;;;;;;;;;;;;5053658;28;19916;-79
2022/08/03 03:38:22;;;;;;;;;;;;;;;;;;5053279;28;19986;-79
2022/08/03 03:40:47;;;;;;;;;;;;;;;;;;5053573;28;19916;-79
2022/08/03 03:43:13;;;;;;;;;;;;;;;;;;5052887;28;19917;-79
2022/08/03 03:45:41;;;;;;;;;;;;;;;;;;5053303;28;19919;-79
2022/08/03 03:48:07;;;;;;;;;;;;;;;;;;5053190;28;20007;-79
2022/08/03 03:50:33;;;;;;;;;;;;;;;;;;5036363;28;19967;-79
2022/08/03 03:52:58;;;;;;;;;;;;;;;;;;5053347;28;19913;-79
2022/08/03 03:55:23;;;;;;;;;;;;;;;;;;5036385;28;19925;-79
2022/08/03 03:57:49;;;;;;;;;;;;;;;;;;5036232;28;19924;-79
2022/08/03 04:00:15;;;;;;;;;;;;;;;;;;5053020;28;20003;-79
2022/08/03 04:02:40;;;;;;;;;;;;;;;;;;5036224;28;19974;-79
2022/08/03 04:10:59;;;;;;;;;;;;;;;;;;5053055;28;20429;-79
2022/08/03 04:13:43;;;;;;;;;;;;;;;;;;5038378;28;19923;-79
2022/08/03 04:16:09;;;;;;;;;;;;;;;;;;5052823;28;19968;-79
2022/08/03 04:18:34;;;;;;;;;;;;;;;;;;5036361;28;19913;-79
2022/08/03 04:21:02;;;;;;;;;;;;;;;;;;5052696;28;19928;-79
2022/08/03 04:23:27;;;;;;;;;;;;;;;;;;5036065;28;20011;-79
2022/08/03 04:25:53;;;;;;;;;;;;;;;;;;5036007;28;19970;-79
2022/08/03 04:28:18;;;;;;;;;;;;;;;;;;5052883;28;20372;-79
2022/08/03 04:30:46;;;;;;;;;;;;;;;;;;5035770;28;19924;-79
2022/08/03 04:33:11;;;;;;;;;;;;;;;;;;5052486;28;19924;-79
2022/08/03 04:35:37;;;;;;;;;;;;;;;;;;5052587;28;19912;-79
2022/08/03 04:38:03;;;;;;;;;;;;;;;;;;5052484;28;20290;-79
2022/08/03 04:40:32;;;;;;;;;;;;;;;;;;5052477;28;19917;-79
2022/08/03 04:42:58;;;;;;;;;;;;;;;;;;5035852;28;19919;-79
2022/08/03 04:45:23;;;;;;;;;;;;;;;;;;5052497;28;19999;-79
2022/08/03 04:47:48;;;;;;;;;;;;;;;;;;5052490;28;19923;-79
2022/08/03 04:50:13;;;;;;;;;;;;;;;;;;5052755;28;20367;-79
2022/08/03 04:52:38;;;;;;;;;;;;;;;;;;5052897;28;19916;-79
2022/08/03 04:55:04;;;;;;;;;;;;;;;;;;5054942;28;19924;-79
2022/08/03 04:57:29;;;;;;;;;;;;;;;;;;5057879;28;19916;-79
2022/08/03 04:59:55;;;;;;;;;;;;;;;;;;5056338;28;20436;-79
2022/08/03 05:02:20;;;;;;;;;;;;;;;;;;5056345;28;19924;-79
2022/08/03 05:04:46;;;;;;;;;;;;;;;;;;5056891;28;19916;-79
2022/08/03 05:07:12;;;;;;;;;;;;;;;;;;5057745;28;19917;-79
2022/08/03 05:09:37;;;;;;;;;;;;;;;;;;5057399;28;19924;-79
2022/08/03 05:12:03;;;;;;;;;;;;;;;;;;5056166;28;19917;-79
2022/08/03 05:14:28;;;;;;;;;;;;;;;;;;5056043;28;19917;-79
2022/08/03 05:16:53;;;;;;;;;;;;;;;;;;5055996;28;19924;-79
2022/08/03 05:19:19;;;;;;;;;;;;;;;;;;5039635;28;19940;-80
2022/08/03 05:21:44;;;;;;;;;;;;;;;;;;5057157;28;20371;-79
2022/08/03 05:24:09;;;;;;;;;;;;;;;;;;5057171;28;20375;-79
2022/08/03 05:26:34;;;;;;;;;;;;;;;;;;5055879;28;19967;-79
2022/08/03 05:29:00;;;;;;;;;;;;;;;;;;5039126;28;19974;-79
2022/08/03 05:31:25;;;;;;;;;;;;;;;;;;5038882;28;20356;-79
2022/08/03 05:33:50;;;;;;;;;;;;;;;;;;5057150;28;19928;-79
2022/08/03 05:36:15;;;;;;;;;;;;;;;;;;5056934;28;19917;-79
2022/08/03 05:38:41;;;;;;;;;;;;;;;;;;5057439;28;19924;-79
2022/08/03 05:41:06;;;;;;;;;;;;;;;;;;5055506;28;19917;-79
2022/08/03 05:43:31;;;;;;;;;;;;;;;;;;5055593;28;20276;-79
2022/08/03 05:45:58;;;;;;;;;;;;;;;;;;5057022;28;19924;-79
2022/08/03 05:48:23;;;;;;;;;;;;;;;;;;5055445;28;19917;-79
2022/08/03 05:50:49;;;;;;;;;;;;;;;;;;5055357;28;19923;-79
2022/08/03 05:53:14;;;;;;;;;;;;;;;;;;5055235;28;19920;-79
2022/08/03 05:55:39;;;;;;;;;;;;;;;;;;5055723;28;20390;-79
2022/08/03 05:58:05;;;;;;;;;;;;;;;;;;5056448;28;19917;-79
2022/08/03 06:00:30;;;;;;;;;;;;;;;;;;5055183;28;19924;-79
2022/08/03 06:02:56;;;;;;;;;;;;;;;;;;5055107;28;20285;-79
2022/08/03 06:05:21;;;;;;;;;;;;;;;;;;5054879;28;19923;-79
2022/08/03 06:07:46;;;;;;;;;;;;;;;;;;5038634;28;19998;-79
2022/08/03 06:10:11;;;;;;;;;;;;;;;;;;5038373;28;20021;-79
2022/08/03 06:12:39;;;;;;;;;;;;;;;;;;5056428;28;20023;-79
2022/08/03 06:15:05;;;;;;;;;;;;;;;;;;5054815;28;20383;-79
2022/08/03 06:17:30;;;;;;;;;;;;;;;;;;5054879;28;19920;-79
2022/08/03 06:19:56;;;;;;;;;;;;;;;;;;5054837;28;19917;-79
2022/08/03 06:22:21;;;;;;;;;;;;;;;;;;5055465;28;19919;-78
2022/08/03 06:24:46;;;;;;;;;;;;;;;;;;5054834;28;20300;-78
2022/08/03 06:27:11;;;;;;;;;;;;;;;;;;5055076;28;20429;-79
2022/08/03 06:29:37;;;;;;;;;;;;;;;;;;5054485;28;19924;-79
2022/08/03 06:32:02;;;;;;;;;;;;;;;;;;5037809;28;19971;-79
2022/08/03 06:34:27;;;;;;;;;;;;;;;;;;5054726;28;19974;-79
2022/08/03 06:36:53;;;;;;;;;;;;;;;;;;5056050;28;19971;-79
2022/08/03 06:39:19;;;;;;;;;;;;;;;;;;5054935;28;19917;-79
2022/08/03 06:41:44;;;;;;;;;;;;;;;;;;5037887;28;20292;-79
2022/08/03 06:44:09;;;;;;;;;;;;;;;;;;5054322;28;20011;-79
2022/08/03 06:46:35;;;;;;;;;;;;;;;;;;5054590;28;19917;-78
2022/08/03 06:49:00;;;;;;;;;;;;;;;;;;5055855;28;20004;-79
2022/08/03 06:51:25;;;;;;;;;;;;;;;;;;5055754;28;19924;-79
2022/08/03 06:53:50;;;;;;;;;;;;;;;;;;5054098;28;19921;-79
2022/08/03 06:56:15;;;;;;;;;;;;;;;;;;5037498;28;20002;-79
2022/08/03 06:58:41;;;;;;;;;;;;;;;;;;5055498;28;19924;-79
2022/08/03 07:01:06;;;;;;;;;;;;;;;;;;5037374;28;19917;-79
2022/08/03 07:03:31;;;;;;;;;;;;;;;;;;5037429;28;19917;-79
2022/08/03 07:05:57;;;;;;;;;;;;;;;;;;5055483;28;19917;-79
2022/08/03 07:08:23;;;;;;;;;;;;;;;;;;5055436;28;19925;-79
2022/08/03 07:10:48;;;;;;;;;;;;;;;;;;5055135;28;19918;-79
2022/08/03 07:13:13;;;;;;;;;;;;;;;;;;5037041;28;19919;-79
2022/08/03 07:15:38;;;;;;;;;;;;;;;;;;5053733;28;19917;-79
2022/08/03 07:18:04;;;;;;;;;;;;;;;;;;5053996;28;19963;-79
2022/08/03 07:20:29;;;;;;;;;;;;;;;;;;5055520;28;19917;-79
2022/08/03 07:22:54;;;;;;;;;;;;;;;;;;5053592;28;19978;-79
2022/08/03 07:25:20;;;;;;;;;;;;;;;;;;5053852;28;19924;-79
2022/08/03 07:27:46;;;;;;;;;;;;;;;;;;5053871;28;19971;-79
2022/08/03 07:30:12;;;;;;;;;;;;;;;;;;5054536;28;20050;-79
2022/08/03 07:32:38;;;;;;;;;;;;;;;;;;5053793;28;19920;-79
2022/08/03 07:35:03;;;;;;;;;;;;;;;;;;5053295;28;19925;-79
2022/08/03 07:37:29;;;;;;;;;;;;;;;;;;5036757;28;19912;-79
2022/08/03 07:39:54;;;;;;;;;;;;;;;;;;5053373;28;19912;-79
2022/08/03 07:42:19;;;;;;;;;;;;;;;;;;5036859;28;19923;-79
2022/08/03 07:44:44;;;;;;;;;;;;;;;;;;5053271;28;19920;-79
2022/08/03 07:47:10;;;;;;;;;;;;;;;;;;5053133;28;19916;-79
2022/08/03 07:49:39;;;;;;;;;;;;;;;;;;5053235;28;19920;-79
2022/08/03 07:54:48;;;;;;;;;;;;;;;;;;5053406;28;19931;-79
2022/08/03 07:57:13;;;;;;;;;;;;;;;;;;5054263;28;19917;-79
2022/08/03 07:59:39;;;;;;;;;;;;;;;;;;5036356;28;19917;-79
2022/08/03 08:02:05;;;;;;;;;;;;;;;;;;5054496;28;19994;-79
2022/08/03 08:04:30;;;;;;;;;;;;;;;;;;5052966;28;19963;-79
2022/08/03 08:06:56;;;;;;;;;;;;;;;;;;5052999;28;19916;-79
2022/08/03 08:09:22;;;;;;;;;;;;;;;;;;5053198;28;19923;-79
2022/08/03 08:11:48;;;;;;;;;;;;;;;;;;5054158;28;19917;-79
2022/08/03 08:14:13;;;;;;;;;;;;;;;;;;5035981;28;19920;-79
2022/08/03 08:16:38;;;;;;;;;;;;;;;;;;5053929;28;19962;-79
2022/08/03 08:19:03;;;;;;;;;;;;;;;;;;5053900;28;19940;-79
2022/08/03 08:21:29;;;;;;;;;;;;;;;;;;5052682;28;19921;-79
2022/08/03 08:23:54;;;;;;;;;;;;;;;;;;5052460;28;19924;-79
2022/08/03 08:26:19;;;;;;;;;;;;;;;;;;5054102;28;19924;-79
2022/08/03 08:28:44;;;;;;;;;;;;;;;;;;5035902;28;19964;-79
2022/08/03 08:31:10;;;;;;;;;;;;;;;;;;5052734;28;19986;-79
2022/08/03 08:33:35;;;;;;;;;;;;;;;;;;5054015;28;20381;-79
2022/08/03 08:36:00;;;;;;;;;;;;;;;;;;5053771;28;19917;-79
2022/08/03 08:38:26;;;;;;;;;;;;;;;;;;5036371;28;20363;-79
2022/08/03 08:40:53;;;;;;;;;;;;;;;;;;5035746;28;20355;-79
2022/08/03 08:43:18;;;;;;;;;;;;;;;;;;5052756;28;19916;-79
2022/08/03 08:45:44;;;;;;;;;;;;;;;;;;5052746;28;19974;-79
2022/08/03 08:48:09;;;;;;;;;;;;;;;;;;5035991;28;19912;-79
2022/08/03 08:50:34;;;;;;;;;;;;;;;;;;5052253;28;19974;-80
2022/08/03 08:53:01;;;;;;;;;;;;;;;;;;5052647;28;20375;-79
2022/08/03 08:55:26;;;;;;;;;;;;;;;;;;5052307;28;20064;-79
2022/08/03 08:57:52;;;;;;;;;;;;;;;;;;5052768;28;20399;-79
2022/08/03 09:00:17;;;;;;;;;;;;;;;;;;5035626;28;19917;-79
2022/08/03 09:02:43;;;;;;;;;;;;;;;;;;5035968;28;20287;-79
2022/08/03 09:05:09;;;;;;;;;;;;;;;;;;5035657;28;19924;-79
2022/08/03 09:07:35;;;;;;;;;;;;;;;;;;5052278;28;20332;-79
2022/08/03 09:10:00;;;;;;;;;;;;;;;;;;5052490;28;19975;-79
2022/08/03 09:12:26;;;;;;;;;;;;;;;;;;5053295;28;19916;-79
2022/08/03 09:14:51;;;;;;;;;;;;;;;;;;5052065;28;19927;-79
2022/08/03 09:17:16;;;;;;;;;;;;;;;;;;5053350;28;19948;-79
2022/08/03 09:19:42;;;;;;;;;;;;;;;;;;5052035;28;20426;-79
2022/08/03 09:22:08;;;;;;;;;;;;;;;;;;5053531;28;20353;-79
2022/08/03 09:24:33;;;;;;;;;;;;;;;;;;5053354;28;19924;-79
2022/08/03 09:26:59;;;;;;;;;;;;;;;;;;5051986;28;19924;-79
2022/08/03 09:29:24;;;;;;;;;;;;;;;;;;5051977;28;19924;-79
2022/08/03 09:31:49;;;;;;;;;;;;;;;;;;5051841;28;20084;-79
2022/08/03 09:34:15;;;;;;;;;;;;;;;;;;5052373;28;20363;-79
2022/08/03 09:36:42;;;;;;;;;;;;;;;;;;5052264;28;20363;-79
2022/08/03 09:39:11;;;;;;;;;;;;;;;;;;5035441;28;19960;-79
2022/08/03 09:41:41;;;;;;;;;;;;;;;;;;5055213;28;19958;-79
2022/08/03 09:44:07;;;;;;;;;;;;;;;;;;5056190;28;19913;-79
2022/08/03 09:46:46;;;;;;;;;;;;;;;;;;5055840;28;19913;-79
2022/08/03 09:49:11;;;;;;;;;;;;;;;;;;5055549;28;20007;-80
2022/08/03 09:51:37;;;;;;;;;;;;;;;;;;5055810;28;20003;-79
2022/08/03 09:54:03;;;;;;;;;;;;;;;;;;5055218;28;20409;-79
2022/08/03 09:56:44;;;;;;;;;;;;;;;;;;5056885;28;19923;-79
2022/08/03 09:59:10;;;;;;;;;;;;;;;;;;5055331;28;19920;-79
2022/08/03 10:01:36;;;;;;;;;;;;;;;;;;5038554;28;19913;-79
2022/08/03 10:04:01;;;;;;;;;;;;;;;;;;5038489;28;20342;-79
2022/08/03 10:06:27;;;;;;;;;;;;;;;;;;5055730;28;19912;-79
2022/08/03 10:09:11;;;;;;;;;;;;;;;;;;5055108;28;20318;-79
2022/08/03 10:11:37;;;;;;;;;;;;;;;;;;5054817;28;19975;-79
2022/08/03 10:14:03;;;;;;;;;;;;;;;;;;5038321;28;20399;-79
2022/08/03 10:16:30;;;;;;;;;;;;;;;;;;5038254;28;19913;-79
2022/08/03 10:18:56;;;;;;;;;;;;;;;;;;5054955;28;20023;-79
2022/08/03 10:21:21;;;;;;;;;;;;;;;;;;5038213;28;19921;-79
2022/08/03 10:23:47;;;;;;;;;;;;;;;;;;5038057;28;19921;-79
2022/08/03 10:26:12;;;;;;;;;;;;;;;;;;5055105;28;20367;-79
2022/08/03 10:28:39;;;;;;;;;;;;;;;;;;5054736;28;19920;-79
2022/08/03 10:31:06;;;;;;;;;;;;;;;;;;5055874;28;20019;-79
2022/08/03 10:33:33;;;;;;;;;;;;;;;;;;5038115;28;19919;-79
2022/08/03 10:35:59;;;;;;;;;;;;;;;;;;5037910;28;19916;-79
2022/08/03 10:38:28;;;;;;;;;;;;;;;;;;5054527;28;20058;-79
2022/08/03 10:40:54;;;;;;;;;;;;;;;;;;5037873;28;20003;-79
2022/08/03 10:43:21;;;;;;;;;;;;;;;;;;5054437;28;19917;-79
2022/08/03 10:45:47;;;;;;;;;;;;;;;;;;5037935;28;20003;-79
2022/08/03 10:48:12;;;;;;;;;;;;;;;;;;5054389;28;20013;-79
2022/08/03 10:50:37;;;;;;;;;;;;;;;;;;5055492;28;19964;-79
2022/08/03 10:53:06;;;;;;;;;;;;;;;;;;5053490;28;20012;-79
2022/08/03 10:58:49;;;;;;;;;;;;;;;;;;5054662;28;19966;-79
2022/08/03 11:01:14;;;;;;;;;;;;;;;;;;5054355;28;19912;-79
2022/08/03 11:03:52;;;;;;;;;;;;;;;;;;5037442;28;20272;-79
2022/08/03 11:06:18;;;;;;;;;;;;;;;;;;5055202;28;19975;-79
2022/08/03 11:08:43;;;;;;;;;;;;;;;;;;5054375;28;19921;-79
2022/08/03 11:11:18;;;;;;;;;;;;;;;;;;5053966;28;19913;-79
2022/08/03 11:13:57;;;;;;;;;;;;;;;;;;5053740;28;20363;-79
2022/08/03 11:16:22;;;;;;;;;;;;;;;;;;5053925;28;19919;-79
2022/08/03 11:18:55;;;;;;;;;;;;;;;;;;5037192;28;19912;-79
2022/08/03 11:21:20;;;;;;;;;;;;;;;;;;5053792;28;19923;-79
2022/08/03 11:23:46;;;;;;;;;;;;;;;;;;5053875;28;20011;-79
2022/08/03 11:26:17;;;;;;;;;;;;;;;;;;5053714;28;20429;-79
2022/08/03 11:28:46;;;;;;;;;;;;;;;;;;5036962;28;19920;-79
2022/08/03 11:31:20;;;;;;;;;;;;;;;;;;5053442;28;19921;-79
2022/08/03 11:34:04;;;;;;;;;;;;;;;;;;5054593;28;19932;-79
2022/08/03 11:36:30;;;;;;;;;;;;;;;;;;5054658;28;20438;-79
2022/08/03 11:39:16;;;;;;;;;;;;;;;;;;5053734;28;19920;-79
2022/08/03 11:41:42;;;;;;;;;;;;;;;;;;5036728;28;19955;-79
2022/08/03 11:44:07;;;;;;;;;;;;;;;;;;5053910;28;19956;-79
2022/08/03 11:46:36;;;;;;;;;;;;;;;;;;5036561;28;19925;-79
2022/08/03 11:49:06;;;;;;;;;;;;;;;;;;5036510;28;20398;-79
2022/08/03 11:51:34;;;;;;;;;;;;;;;;;;5036705;28;19913;-79
2022/08/03 11:54:00;;;;;;;;;;;;;;;;;;5053258;28;20372;-79
2022/08/03 11:56:26;;;;;;;;;;;;;;;;;;5036442;28;19927;-79
2022/08/03 11:58:55;;;;;;;;;;;;;;;;;;5036356;28;19912;-79
2022/08/03 12:01:21;;;;;;;;;;;;;;;;;;5053077;28;19913;-79
2022/08/03 12:03:46;;;;;;;;;;;;;;;;;;5052788;28;19995;-79
2022/08/03 12:06:13;;;;;;;;;;;;;;;;;;5052960;28;19913;-79
2022/08/03 12:08:38;;;;;;;;;;;;;;;;;;5053237;28;19912;-79
2022/08/03 12:11:05;;;;;;;;;;;;;;;;;;5036192;28;19936;-79
2022/08/03 12:13:47;;;;;;;;;;;;;;;;;;5052724;28;19913;-78
2022/08/03 12:16:24;;;;;;;;;;;;;;;;;;5052729;28;19917;-79
2022/08/03 12:18:59;;;;;;;;;;;;;;;;;;5036133;28;19917;-79
2022/08/03 12:21:24;;;;;;;;;;;;;;;;;;5053072;28;19913;-79
2022/08/03 12:23:50;;;;;;;;;;;;;;;;;;5053996;28;20427;-79
2022/08/03 12:26:15;;;;;;;;;;;;;;;;;;5052681;28;19928;-79
2022/08/03 12:28:47;;;;;;;;;;;;;;;;;;5036034;28;19980;-79
2022/08/03 12:31:12;;;;;;;;;;;;;;;;;;5052672;28;19921;-79
2022/08/03 12:33:54;;;;;;;;;;;;;;;;;;5035901;28;19925;-79
2022/08/03 12:36:19;;;;;;;;;;;;;;;;;;5035911;28;19913;-79
2022/08/03 12:38:44;;;;;;;;;;;;;;;;;;5052464;28;19916;-79
2022/08/03 12:41:14;;;;;;;;;;;;;;;;;;5052678;28;19917;-79
2022/08/03 12:43:47;;;;;;;;;;;;;;;;;;5036537;28;19919;-79
2022/08/03 12:46:13;;;;;;;;;;;;;;;;;;5035758;28;19913;-80
2022/08/03 12:49:18;;;;;;;;;;;;;;;;;;5052769;28;19913;-79
2022/08/03 12:51:43;;;;;;;;;;;;;;;;;;5032424;28;19917;-78
2022/08/03 12:54:15;;;;;;;;;;;;;;;;;;5014949;28;20414;-79
2022/08/03 12:57:15;;;;;;;;;;;;;;;;;;5031669;28;19919;-79
2022/08/03 12:59:41;;;;;;;;;;;;;;;;;;4973355;28;19965;-79
2022/08/03 13:02:16;;;;;;;;;;;;;;;;;;4957186;28;20365;-79
2022/08/03 13:04:42;;;;;;;;;;;;;;;;;;4940754;28;19914;-79
2022/08/03 13:07:08;;;;;;;;;;;;;;;;;;4940638;28;19914;-79
2022/08/03 13:09:46;;;;;;;;;;;;;;;;;;4940865;28;19997;-79
2022/08/03 13:12:12;;;;;;;;;;;;;;;;;;4940531;28;19921;-79
2022/08/03 13:14:37;;;;;;;;;;;;;;;;;;4972806;28;20468;-79
2022/08/03 13:17:03;;;;;;;;;;;;;;;;;;4943306;28;20028;-79
2022/08/03 13:19:28;;;;;;;;;;;;;;;;;;4960590;28;19921;-79
2022/08/03 13:21:53;;;;;;;;;;;;;;;;;;4965709;28;19961;-79
2022/08/03 13:24:18;;;;;;;;;;;;;;;;;;4963300;28;19922;-79
2022/08/03 13:26:44;;;;;;;;;;;;;;;;;;4979607;28;19918;-79
2022/08/03 13:29:09;;;;;;;;;;;;;;;;;;4979618;28;19914;-79
2022/08/03 13:31:34;;;;;;;;;;;;;;;;;;4979223;28;19921;-79
2022/08/03 13:34:00;;;;;;;;;;;;;;;;;;5028386;28;19933;-79
2022/08/03 13:36:25;;;;;;;;;;;;;;;;;;5055720;28;20367;-79
2022/08/03 13:38:50;;;;;;;;;;;;;;;;;;5055748;28;19917;-79
2022/08/03 13:41:15;;;;;;;;;;;;;;;;;;5056229;28;20275;-79
2022/08/03 13:43:41;;;;;;;;;;;;;;;;;;5055659;28;19974;-79
2022/08/03 13:46:06;;;;;;;;;;;;;;;;;;5055911;28;19924;-79
2022/08/03 13:48:31;;;;;;;;;;;;;;;;;;5038825;28;20404;-79
2022/08/03 13:50:57;;;;;;;;;;;;;;;;;;5038844;28;20012;-79
2022/08/03 13:53:22;;;;;;;;;;;;;;;;;;5038806;28;19917;-79
2022/08/03 13:55:47;;;;;;;;;;;;;;;;;;5056406;28;19920;-79
2022/08/03 13:58:12;;;;;;;;;;;;;;;;;;5055638;28;19966;-78
2022/08/03 14:00:38;;;;;;;;;;;;;;;;;;5056492;28;19916;-79
2022/08/03 14:03:04;;;;;;;;;;;;;;;;;;5055595;28;20282;-79
2022/08/03 14:05:30;;;;;;;;;;;;;;;;;;5056722;28;20016;-79
2022/08/03 14:07:55;;;;;;;;;;;;;;;;;;5056405;28;19920;-79
2022/08/03 14:10:21;;;;;;;;;;;;;;;;;;5055370;28;20257;-79
2022/08/03 14:12:46;;;;;;;;;;;;;;;;;;5038870;28;19917;-79
2022/08/03 14:15:12;;;;;;;;;;;;;;;;;;5056177;28;20395;-79
2022/08/03 14:17:37;;;;;;;;;;;;;;;;;;5055052;28;19923;-79
2022/08/03 14:20:04;;;;;;;;;;;;;;;;;;5056189;28;19920;-79
2022/08/03 14:22:29;;;;;;;;;;;;;;;;;;5056401;28;19916;-79
2022/08/03 14:24:54;;;;;;;;;;;;;;;;;;5054822;28;20443;-79
2022/08/03 14:27:19;;;;;;;;;;;;;;;;;;5056459;28;19928;-79
2022/08/03 14:29:45;;;;;;;;;;;;;;;;;;5054724;28;19927;-79
2022/08/03 14:32:10;;;;;;;;;;;;;;;;;;5054523;28;19924;-79
2022/08/03 14:34:35;;;;;;;;;;;;;;;;;;5055757;28;19925;-79
2022/08/03 14:37:00;;;;;;;;;;;;;;;;;;5055867;28;19917;-79
2022/08/03 14:39:26;;;;;;;;;;;;;;;;;;5056074;28;19916;-79
2022/08/03 14:41:51;;;;;;;;;;;;;;;;;;5054569;28;19916;-79
2022/08/03 14:44:17;;;;;;;;;;;;;;;;;;5056244;28;19939;-79
2022/08/03 14:46:42;;;;;;;;;;;;;;;;;;5054364;28;19967;-79
2022/08/03 14:49:07;;;;;;;;;;;;;;;;;;5054387;28;19916;-79
2022/08/03 14:51:32;;;;;;;;;;;;;;;;;;5055672;28;19928;-79
2022/08/03 14:53:58;;;;;;;;;;;;;;;;;;5054240;28;19932;-79
2022/08/03 14:56:23;;;;;;;;;;;;;;;;;;5056025;28;19958;-79
2022/08/03 14:58:48;;;;;;;;;;;;;;;;;;5054618;28;19917;-79
2022/08/03 15:01:14;;;;;;;;;;;;;;;;;;5037525;28;19929;-79
2022/08/03 15:03:39;;;;;;;;;;;;;;;;;;5055565;28;19917;-79
2022/08/03 15:06:05;;;;;;;;;;;;;;;;;;5054139;28;19913;-79
2022/08/03 15:08:30;;;;;;;;;;;;;;;;;;5037304;28;19917;-79
2022/08/03 15:10:55;;;;;;;;;;;;;;;;;;5055292;28;19917;-79
2022/08/03 15:13:21;;;;;;;;;;;;;;;;;;5055356;28;19917;-78
2022/08/03 15:15:46;;;;;;;;;;;;;;;;;;5053674;28;19955;-79
2022/08/03 15:18:11;;;;;;;;;;;;;;;;;;5037176;28;20371;-79
2022/08/03 15:20:37;;;;;;;;;;;;;;;;;;5037367;28;19924;-79
2022/08/03 15:23:02;;;;;;;;;;;;;;;;;;5053757;28;20379;-79
2022/08/03 15:25:27;;;;;;;;;;;;;;;;;;5053718;28;19924;-79
2022/08/03 15:27:53;;;;;;;;;;;;;;;;;;5053674;28;19916;-79
2022/08/03 15:30:18;;;;;;;;;;;;;;;;;;5036863;28;20326;-79
2022/08/03 15:32:43;;;;;;;;;;;;;;;;;;5054596;28;20015;-79
2022/08/03 15:35:09;;;;;;;;;;;;;;;;;;5036714;28;19927;-79
2022/08/03 15:37:34;;;;;;;;;;;;;;;;;;5054919;28;19960;-79
2022/08/03 15:39:59;;;;;;;;;;;;;;;;;;5054321;28;19927;-79
2022/08/03 15:42:25;;;;;;;;;;;;;;;;;;5054501;28;19967;-79
2022/08/03 15:44:50;;;;;;;;;;;;;;;;;;5054523;28;19917;-79
2022/08/03 15:47:15;;;;;;;;;;;;;;;;;;5053448;28;19916;-79
2022/08/03 15:49:40;;;;;;;;;;;;;;;;;;5053801;28;20328;-79
2022/08/03 15:52:06;;;;;;;;;;;;;;;;;;5054700;28;19917;-79
2022/08/03 15:54:31;;;;;;;;;;;;;;;;;;5052930;28;20282;-79
2022/08/03 15:56:56;;;;;;;;;;;;;;;;;;5036365;28;19926;-80
2022/08/03 15:59:22;;;;;;;;;;;;;;;;;;5054298;28;19924;-79
2022/08/03 16:01:47;;;;;;;;;;;;;;;;;;5036431;28;19924;-79
2022/08/03 16:04:13;;;;;;;;;;;;;;;;;;5036323;28;20516;-79
2022/08/03 16:06:38;;;;;;;;;;;;;;;;;;5036382;28;19920;-79
2022/08/03 16:09:04;;;;;;;;;;;;;;;;;;5052832;28;19917;-79
2022/08/03 16:11:30;;;;;;;;;;;;;;;;;;5036471;28;19999;-79
2022/08/03 16:13:55;;;;;;;;;;;;;;;;;;5053117;28;20323;-79
2022/08/03 16:16:20;;;;;;;;;;;;;;;;;;5054352;28;19983;-79
2022/08/03 16:18:46;;;;;;;;;;;;;;;;;;5053980;28;19923;-79
2022/08/03 16:21:13;;;;;;;;;;;;;;;;;;5054515;28;19913;-79
2022/08/03 16:23:38;;;;;;;;;;;;;;;;;;5052662;28;19917;-79
2022/08/03 16:26:05;;;;;;;;;;;;;;;;;;5052602;28;19946;-79
2022/08/03 16:28:32;;;;;;;;;;;;;;;;;;5052627;28;19965;-79
2022/08/03 16:30:58;;;;;;;;;;;;;;;;;;5053845;28;19925;-79
2022/08/03 16:33:23;;;;;;;;;;;;;;;;;;5052606;28;19958;-79
2022/08/03 16:35:50;;;;;;;;;;;;;;;;;;5051705;28;20553;-79
2022/08/03 16:38:15;;;;;;;;;;;;;;;;;;5054047;28;19970;-79
2022/08/03 16:40:41;;;;;;;;;;;;;;;;;;5052800;28;19984;-79
2022/08/03 16:43:12;;;;;;;;;;;;;;;;;;5052426;28;19912;-78
2022/08/03 16:45:38;;;;;;;;;;;;;;;;;;5052587;28;19979;-79
2022/08/03 16:48:03;;;;;;;;;;;;;;;;;;5053614;28;20364;-79
2022/08/03 16:50:28;;;;;;;;;;;;;;;;;;5036216;28;19940;-79
2022/08/03 16:52:54;;;;;;;;;;;;;;;;;;5039843;28;20419;-79